WEM weather

CLOSED RAF West Malling
West Malling, England, United Kingdom

Public forecast

Using degrees Celsius for public forecast. Weather courtesy of forecast.io.

METAR (pilot weather report)

Closest report is London Biggin Hill Airport, 14.3 nm (26.4 km) WNW. Retrieved 2018/09/24 09:20 UTC (33 minutes ago):

EGKB 240920Z 30007KT 270V340 9999 FEW020 09/05 Q1038

TAF (pilot weather forecast)

Forecast is more than 12 hours old.

Closest forecast is London Biggin Hill Airport, 14.3 nm (26.4 km) WNW. Retrieved 2016/03/02 12:00 UTC (3 years ago):

TAF EGKB 021104Z 0212/0221 25015G25KT 9999 SCT020 TEMPO 0212/0216 25025G38KT 5000 SHRA BKN012CB PROB30 TEMPO 0212/0215 2500 +SHGS +SHRASN TEMPO 0216/0221 29025G35KT TEMPO 0218/0221 BKN009